Time;durP1;ratioP1;P1;durP2;ratioP2;P2;SDS_P1;SDS_P2;PMS_P1;PMS_P2;Temp;Humidity;BMP_temperature;BMP_pressure;BME280_temperature;BME280_humidity;BME280_pressure;Samples;Min_cycle;Max_cycle;Signal;HPM_P1;HPM_P2
2023/01/12 09:07:48;;;;;;;;;;;;;;;5.04;100.00;99564.84;5765160;23;19956;-84
2023/01/12 09:10:13;;;;;;;;;;;;;;;4.96;100.00;99549.28;5055435;28;19921;-83
2023/01/12 09:12:39;;;;;;;;;;;;;;;5.04;100.00;99552.59;5055296;28;20390;-83
2023/01/12 09:15:04;;;;;;;;;;;;;;;4.99;100.00;99556.22;5032965;28;19917;-86
2023/01/12 09:17:32;;;;;;;;;;;;;;;4.98;100.00;99557.13;5056296;28;19963;-89
2023/01/12 09:19:57;;;;;;;;;;;;;;;4.92;100.00;99558.13;5038299;28;19917;-87
2023/01/12 09:22:22;;;;;;;;;;;;;;;4.89;100.00;99551.19;5037001;28;20279;-85
2023/01/12 09:24:48;;;;;;;;;;;;;;;4.89;100.00;99555.59;5055960;28;19912;-85
2023/01/12 09:27:15;;;;;;;;;;;;;;;4.94;100.00;99550.22;5038079;28;19939;-85
2023/01/12 09:29:41;;;;;;;;;;;;;;;4.86;100.00;99553.03;5038054;28;20000;-88
2023/01/12 09:32:08;;;;;;;;;;;;;;;4.83;100.00;99553.94;5055914;28;20010;-86
2023/01/12 09:34:33;;;;;;;;;;;;;;;4.78;100.00;99550.56;5055874;28;19923;-86
2023/01/12 09:37:00;;;;;;;;;;;;;;;4.75;100.00;99561.16;5054464;28;19917;-87
2023/01/12 09:39:27;;;;;;;;;;;;;;;4.77;100.00;99564.63;5055743;28;19917;-86
2023/01/12 09:47:32;;;;;;;;;;;;;;;4.75;100.00;99576.91;5055831;28;19923;-85
2023/01/12 09:50:00;;;;;;;;;;;;;;;4.74;100.00;99572.56;5054300;28;20308;-85
2023/01/12 09:52:43;;;;;;;;;;;;;;;4.71;100.00;99567.38;5054262;28;20392;-88
2023/01/12 09:55:14;;;;;;;;;;;;;;;4.71;100.00;99559.50;5055373;28;19924;-86
2023/01/12 09:58:00;;;;;;;;;;;;;;;4.66;100.00;99577.09;5055339;28;19916;-86
2023/01/12 10:00:27;;;;;;;;;;;;;;;4.67;100.00;99571.81;5055515;28;20063;-93
2023/01/12 10:03:01;;;;;;;;;;;;;;;4.69;100.00;99579.66;5037361;28;19916;-91
2023/01/12 10:05:33;;;;;;;;;;;;;;;4.73;100.00;99578.69;5037607;28;19939;-91
2023/01/12 10:07:58;;;;;;;;;;;;;;;4.69;100.00;99587.53;5035648;28;19923;-91
2023/01/12 10:10:26;;;;;;;;;;;;;;;4.71;100.00;99581.34;5055220;28;19916;-93
2023/01/12 10:12:59;;;;;;;;;;;;;;;4.68;100.00;99581.41;5055256;28;19928;-90
2023/01/12 10:15:27;;;;;;;;;;;;;;;4.68;100.00;99578.78;5054985;28;19917;-92
2023/01/12 10:18:01;;;;;;;;;;;;;;;4.72;100.00;99577.84;5055095;28;19921;-90
2023/01/12 10:20:53;;;;;;;;;;;;;;;4.68;100.00;99584.03;5038638;28;19970;-91
2023/01/12 10:23:23;;;;;;;;;;;;;;;4.67;100.00;99578.84;5032683;28;19967;-88
2023/01/12 10:26:03;;;;;;;;;;;;;;;4.65;100.00;99572.75;5037003;28;19917;-89
2023/01/12 10:28:32;;;;;;;;;;;;;;;4.66;100.00;99582.34;5037114;28;19923;-88
2023/01/12 10:30:57;;;;;;;;;;;;;;;4.68;100.00;99575.31;5054712;28;19923;-91
2023/01/12 10:33:27;;;;;;;;;;;;;;;4.67;100.00;99577.06;5036978;28;19917;-90
2023/01/12 10:35:56;;;;;;;;;;;;;;;4.70;100.00;99577.00;5054871;28;20327;-90
2023/01/12 10:38:23;;;;;;;;;;;;;;;4.70;100.00;99578.75;5053576;28;19952;-92
2023/01/12 10:41:10;;;;;;;;;;;;;;;4.70;100.00;99571.75;5054753;28;19917;-90
2023/01/12 10:43:36;;;;;;;;;;;;;;;4.68;100.00;99584.03;5036681;28;19916;-89
2023/01/12 10:46:05;;;;;;;;;;;;;;;4.66;100.00;99574.47;5054454;28;20016;-90
2023/01/12 10:48:33;;;;;;;;;;;;;;;4.66;100.00;99569.22;5054934;28;19939;-92
2023/01/12 10:51:00;;;;;;;;;;;;;;;4.64;100.00;99565.78;5054440;28;19966;-85
2023/01/12 10:53:30;;;;;;;;;;;;;;;4.58;100.00;99573.78;5035324;28;19917;-91
2023/01/12 10:55:55;;;;;;;;;;;;;;;4.64;100.00;99563.16;5036596;28;19924;-89
2023/01/12 10:58:29;;;;;;;;;;;;;;;4.70;100.00;99573.50;5036404;28;20170;-90
2023/01/12 11:00:55;;;;;;;;;;;;;;;4.66;100.00;99558.72;5036192;28;20287;-89
2023/01/12 11:03:41;;;;;;;;;;;;;;;4.76;100.00;99559.41;5036242;28;19924;-90
2023/01/12 11:06:37;;;;;;;;;;;;;;;5.53;100.00;99562.78;5053708;28;19935;-90
2023/01/12 11:09:23;;;;;;;;;;;;;;;5.91;100.00;99561.78;5040881;28;19947;-89
2023/01/12 11:11:55;;;;;;;;;;;;;;;6.13;100.00;99554.19;5054159;28;20007;-90
2023/01/12 11:14:24;;;;;;;;;;;;;;;6.27;100.00;99553.78;5054236;28;19916;-89
2023/01/12 11:17:18;;;;;;;;;;;;;;;6.40;100.00;99543.78;5036328;28;19917;-93
2023/01/12 11:19:45;;;;;;;;;;;;;;;6.50;100.00;99549.63;5022794;28;19955;-90
2023/01/12 11:22:17;;;;;;;;;;;;;;;6.58;100.00;99558.13;5052606;28;19962;-90
2023/01/12 11:24:51;;;;;;;;;;;;;;;6.64;100.00;99549.22;5053914;28;19924;-90
2023/01/12 11:27:17;;;;;;;;;;;;;;;6.72;100.00;99540.16;5053771;28;19940;-90
2023/01/12 11:30:00;;;;;;;;;;;;;;;6.81;100.00;99544.28;5053867;28;20311;-91
2023/01/12 11:32:36;;;;;;;;;;;;;;;6.91;100.00;99539.59;5053575;28;19990;-89
2023/01/12 11:35:16;;;;;;;;;;;;;;;6.94;100.00;99534.22;5053470;28;20360;-89
2023/01/12 11:37:42;;;;;;;;;;;;;;;6.98;100.00;99535.81;5052170;28;19928;-89
2023/01/12 11:40:28;;;;;;;;;;;;;;;7.01;100.00;99532.25;5053780;28;20084;-90
2023/01/12 11:46:00;;;;;;;;;;;;;;;7.14;100.00;99532.72;5054033;28;19924;-89
2023/01/12 11:48:31;;;;;;;;;;;;;;;7.20;100.00;99529.88;5052775;28;19924;-89
2023/01/12 11:50:57;;;;;;;;;;;;;;;7.22;100.00;99514.88;5053422;28;19925;-89
2023/01/12 11:53:23;;;;;;;;;;;;;;;7.25;100.00;99520.03;5034103;28;20059;-89
2023/01/12 11:56:12;;;;;;;;;;;;;;;7.29;100.00;99508.47;5035465;28;20345;-90
2023/01/12 11:58:55;;;;;;;;;;;;;;;7.31;100.00;99511.94;5035394;28;20062;-88
2023/01/12 12:01:27;;;;;;;;;;;;;;;7.34;100.00;99513.56;5035219;28;19967;-88
2023/01/12 12:03:54;;;;;;;;;;;;;;;7.37;100.00;99500.28;5035265;28;19917;-87
2023/01/12 12:06:21;;;;;;;;;;;;;;;7.39;100.00;99496.72;5053098;28;19917;-89
2023/01/12 12:08:54;;;;;;;;;;;;;;;7.40;100.00;99490.53;5051720;28;19927;-88
2023/01/12 12:11:26;;;;;;;;;;;;;;;7.44;100.00;99492.13;5053006;28;19916;-88
2023/01/12 12:14:17;;;;;;;;;;;;;;;7.51;100.00;99490.13;5052352;28;20371;-88
2023/01/12 12:16:51;;;;;;;;;;;;;;;7.54;100.00;99481.28;5053073;28;19917;-89
2023/01/12 12:19:22;;;;;;;;;;;;;;;7.57;100.00;99478.53;5035152;28;19917;-89
2023/01/12 12:21:49;;;;;;;;;;;;;;;7.59;100.00;99487.22;5034118;28;19920;-91
2023/01/12 12:24:29;;;;;;;;;;;;;;;7.61;100.00;99477.47;5036313;28;21501;-88
2023/01/12 12:26:55;;;;;;;;;;;;;;;7.63;100.00;99475.69;5049627;28;20003;-94
2023/01/12 12:29:39;;;;;;;;;;;;;;;7.66;100.00;99465.03;5050882;28;20192;-88
2023/01/12 12:32:24;;;;;;;;;;;;;;;7.68;100.00;99472.88;5052537;28;19924;-89
2023/01/12 12:34:53;;;;;;;;;;;;;;;7.70;100.00;99465.75;5052942;28;19924;-91
2023/01/12 12:37:18;;;;;;;;;;;;;;;7.73;100.00;99466.50;5051601;28;20387;-88
2023/01/12 12:39:47;;;;;;;;;;;;;;;7.75;100.00;99448.84;5052842;28;19916;-90
2023/01/12 12:45:16;;;;;;;;;;;;;;;7.82;100.00;99454.78;5053099;28;20301;-90
2023/01/12 12:48:05;;;;;;;;;;;;;;;7.81;100.00;99448.63;5034900;28;20287;-88
2023/01/12 12:50:36;;;;;;;;;;;;;;;7.88;100.00;99453.66;5052577;28;20384;-90
2023/01/12 12:53:06;;;;;;;;;;;;;;;7.91;100.00;99453.56;5033522;28;20367;-92
2023/01/12 12:55:31;;;;;;;;;;;;;;;7.92;100.00;99444.75;5052559;28;19977;-88
2023/01/12 12:58:05;;;;;;;;;;;;;;;7.95;100.00;99452.53;5052683;28;20011;-89
2023/01/12 13:00:35;;;;;;;;;;;;;;;7.98;100.00;99449.78;5052608;28;20264;-88
2023/01/12 13:03:00;;;;;;;;;;;;;;;8.03;100.00;99442.56;5034788;28;20011;-88
2023/01/12 13:05:42;;;;;;;;;;;;;;;8.05;100.00;99435.44;5034568;28;20406;-88
2023/01/12 13:08:28;;;;;;;;;;;;;;;8.08;100.00;99430.03;5051143;28;20005;-88
2023/01/12 13:10:59;;;;;;;;;;;;;;;8.05;100.00;99427.50;5034690;28;19916;-86
2023/01/12 13:13:30;;;;;;;;;;;;;;;8.10;100.00;99433.47;5052377;28;19917;-89
2023/01/12 13:16:29;;;;;;;;;;;;;;;8.15;100.00;99433.28;5052408;28;19917;-89
2023/01/12 13:18:56;;;;;;;;;;;;;;;8.16;100.00;99441.16;5033520;28;20039;-92
2023/01/12 13:21:29;;;;;;;;;;;;;;;8.19;100.00;99427.84;5053703;28;20078;-96
2023/01/12 13:24:10;;;;;;;;;;;;;;;8.22;100.00;99424.22;5054289;28;19916;-93
2023/01/12 13:26:39;;;;;;;;;;;;;;;8.26;100.00;99427.59;5055829;28;19917;-89
2023/01/12 13:29:22;;;;;;;;;;;;;;;8.24;100.00;99437.38;5055942;28;19963;-90
2023/01/12 13:31:52;;;;;;;;;;;;;;;8.27;100.00;99439.91;5056025;28;19916;-90
2023/01/12 13:34:40;;;;;;;;;;;;;;;8.29;100.00;99432.78;5037902;28;19916;-89
2023/01/12 13:37:26;;;;;;;;;;;;;;;8.33;100.00;99429.09;5054530;28;19972;-89
2023/01/12 13:39:57;;;;;;;;;;;;;;;8.32;100.00;99428.22;5037328;28;19928;-90
2023/01/12 13:45:15;;;;;;;;;;;;;;;8.35;100.00;99427.25;5055668;28;19986;-88
2023/01/12 13:47:41;;;;;;;;;;;;;;;8.40;100.00;99425.28;5055613;28;19943;-89
2023/01/12 13:50:12;;;;;;;;;;;;;;;8.41;100.00;99420.84;5055545;28;19922;-90
2023/01/12 13:52:38;;;;;;;;;;;;;;;8.46;100.00;99419.78;5036328;28;19917;-89
2023/01/12 13:55:16;;;;;;;;;;;;;;;8.47;100.00;99421.53;5037626;28;20283;-90
2023/01/12 13:57:54;;;;;;;;;;;;;;;8.51;100.00;99433.66;5037572;28;19978;-90
2023/01/12 14:00:22;;;;;;;;;;;;;;;8.52;100.00;99419.56;5037516;28;20002;-90
2023/01/12 14:02:51;;;;;;;;;;;;;;;8.04;100.00;99432.84;5055282;28;20445;-88
2023/01/12 14:05:27;;;;;;;;;;;;;;;7.02;100.00;99436.47;5055227;28;19913;-87
2023/01/12 14:07:56;;;;;;;;;;;;;;;6.61;100.00;99429.06;5053913;28;20383;-87
2023/01/12 14:10:27;;;;;;;;;;;;;;;6.46;100.00;99426.91;5055291;28;19976;-90
2023/01/12 14:13:07;;;;;;;;;;;;;;;6.33;100.00;99426.41;5055161;28;20317;-91
2023/01/12 14:18:17;;;;;;;;;;;;;;;6.02;100.00;99435.25;5055030;28;20387;-89
2023/01/12 14:20:48;;;;;;;;;;;;;;;6.00;100.00;99429.19;5055127;28;20472;-87
2023/01/12 14:23:23;;;;;;;;;;;;;;;5.96;100.00;99427.50;5053787;28;19967;-89
2023/01/12 14:26:08;;;;;;;;;;;;;;;5.85;100.00;99426.97;5037051;28;19913;-89
2023/01/12 14:28:33;;;;;;;;;;;;;;;5.80;100.00;99427.94;5036704;28;19924;-88
2023/01/12 14:30:59;;;;;;;;;;;;;;;5.64;100.00;99417.03;5054707;28;20292;-87
2023/01/12 14:33:26;;;;;;;;;;;;;;;5.64;100.00;99414.38;5054666;28;19912;-88
2023/01/12 14:35:54;;;;;;;;;;;;;;;5.61;100.00;99411.00;5054183;28;20478;-89
2023/01/12 14:38:21;;;;;;;;;;;;;;;5.53;100.00;99412.97;5053294;28;19917;-89
2023/01/12 14:40:48;;;;;;;;;;;;;;;5.52;100.00;99416.50;5054510;28;20399;-86
2023/01/12 14:49:22;;;;;;;;;;;;;;;5.39;100.00;99401.09;5054741;28;19924;-93
2023/01/12 14:51:57;;;;;;;;;;;;;;;5.36;100.00;99400.31;5046365;28;19920;-88
2023/01/12 14:54:27;;;;;;;;;;;;;;;5.34;100.00;99399.50;5036399;28;19923;-86
2023/01/12 14:57:06;;;;;;;;;;;;;;;5.31;100.00;99395.16;5054138;28;19917;-88
2023/01/12 14:59:33;;;;;;;;;;;;;;;5.24;100.00;99396.25;5054190;28;20355;-86
2023/01/12 15:02:13;;;;;;;;;;;;;;;5.30;100.00;99405.72;5054206;28;20328;-87
2023/01/12 15:04:57;;;;;;;;;;;;;;;5.21;100.00;99402.44;5036204;28;19986;-88
2023/01/12 15:07:23;;;;;;;;;;;;;;;5.21;100.00;99404.22;5052783;28;19924;-87
2023/01/12 15:10:17;;;;;;;;;;;;;;;5.19;100.00;99409.50;5036083;28;19924;-88
2023/01/12 15:13:09;;;;;;;;;;;;;;;5.18;100.00;99410.41;5040491;28;20019;-88
2023/01/12 15:26:35;;;;;;;;;;;;;;;5.05;100.00;99399.38;5053836;28;19923;-91
2023/01/12 15:29:00;;;;;;;;;;;;;;;5.00;100.00;99387.28;5053826;28;20015;-87
2023/01/12 15:31:33;;;;;;;;;;;;;;;5.01;100.00;99399.47;5053699;28;20004;-87
2023/01/12 15:33:59;;;;;;;;;;;;;;;5.00;100.00;99377.63;5053906;28;19927;-86
2023/01/12 15:36:24;;;;;;;;;;;;;;;6.21;100.00;99390.84;5053532;28;19917;-84
2023/01/12 15:38:50;;;;;;;;;;;;;;;7.89;100.00;99381.53;5052268;28;19923;-86
2023/01/12 15:42:14;;;;;;;;;;;;;;;7.08;100.00;99381.81;5055333;28;20294;-91
2023/01/12 15:44:06;;;;;;;;;;;;;;;6.23;100.00;99375.84;5056178;28;19916;-92
2023/01/12 15:46:34;;;;;;;;;;;;;;;6.07;100.00;99382.53;5054856;28;20027;-89
2023/01/12 15:48:59;;;;;;;;;;;;;;;5.90;100.00;99381.22;5052949;28;19920;-89
2023/01/12 15:51:24;;;;;;;;;;;;;;;5.77;100.00;99379.88;5055043;28;19924;-89
2023/01/12 15:53:49;;;;;;;;;;;;;;;5.73;100.00;99375.63;5052175;28;19921;-86
2023/01/12 15:56:15;;;;;;;;;;;;;;;5.68;100.00;99380.13;5053721;28;19924;-93
2023/01/12 15:58:40;;;;;;;;;;;;;;;5.59;100.00;99379.50;5053532;28;19921;-88
2023/01/12 16:01:09;;;;;;;;;;;;;;;5.56;100.00;99379.59;5053523;28;19956;-90
2023/01/12 16:03:34;;;;;;;;;;;;;;;5.45;100.00;99373.78;5053181;28;20003;-89
2023/01/12 16:05:59;;;;;;;;;;;;;;;5.41;100.00;99372.16;5035400;28;19964;-88
2023/01/12 16:08:24;;;;;;;;;;;;;;;5.49;100.00;99372.78;5052923;28;20011;-88
2023/01/12 16:11:08;;;;;;;;;;;;;;;5.41;100.00;99361.66;5054572;28;19921;-93
2023/01/12 16:13:33;;;;;;;;;;;;;;;5.38;100.00;99359.97;5035610;28;20011;-91
2023/01/12 16:15:58;;;;;;;;;;;;;;;5.40;100.00;99350.25;5053431;28;20352;-91
2023/01/12 16:18:25;;;;;;;;;;;;;;;5.38;100.00;99359.09;5053120;28;19939;-87
2023/01/12 16:20:50;;;;;;;;;;;;;;;5.41;100.00;99359.88;5053802;28;20375;-86
2023/01/12 16:23:15;;;;;;;;;;;;;;;5.38;100.00;99362.59;5052076;28;19970;-87
2023/01/12 16:25:40;;;;;;;;;;;;;;;5.44;100.00;99357.16;5053664;28;19920;-88
2023/01/12 16:28:06;;;;;;;;;;;;;;;5.39;100.00;99356.44;5036313;28;20253;-86
2023/01/12 16:30:31;;;;;;;;;;;;;;;5.36;100.00;99356.53;5054214;28;19932;-88
2023/01/12 16:32:57;;;;;;;;;;;;;;;5.39;100.00;99355.56;5054035;28;20340;-87
2023/01/12 16:35:22;;;;;;;;;;;;;;;5.28;100.00;99351.47;5053193;28;19924;-91
2023/01/12 16:37:51;;;;;;;;;;;;;;;5.30;100.00;99361.94;5035142;28;20375;-90
2023/01/12 16:40:16;;;;;;;;;;;;;;;5.28;100.00;99356.72;5053033;28;19940;-90
2023/01/12 16:42:41;;;;;;;;;;;;;;;5.27;100.00;99344.50;5054071;28;20017;-88
2023/01/12 16:45:07;;;;;;;;;;;;;;;5.32;100.00;99352.25;5035274;28;20010;-87
2023/01/12 16:47:32;;;;;;;;;;;;;;;5.30;100.00;99348.81;5053368;28;20398;-88
2023/01/12 16:49:58;;;;;;;;;;;;;;;5.32;100.00;99346.13;5053159;28;19967;-88
2023/01/12 16:52:24;;;;;;;;;;;;;;;5.28;100.00;99348.84;5052616;28;20291;-92
2023/01/12 16:54:49;;;;;;;;;;;;;;;5.26;100.00;99348.03;5037388;28;19924;-87
2023/01/12 16:57:16;;;;;;;;;;;;;;;5.33;100.00;99342.59;5052853;28;19917;-88
2023/01/12 16:59:41;;;;;;;;;;;;;;;5.33;100.00;99342.59;5049328;28;19917;-88
2023/01/12 17:02:07;;;;;;;;;;;;;;;5.31;100.00;99344.41;5029994;28;19927;-88
2023/01/12 17:04:36;;;;;;;;;;;;;;;5.31;100.00;99347.03;5056521;28;20060;-88
2023/01/12 17:07:02;;;;;;;;;;;;;;;5.26;100.00;99341.91;5037278;28;20440;-88
2023/01/12 17:09:27;;;;;;;;;;;;;;;5.25;100.00;99335.81;5048588;28;20003;-85
2023/01/12 17:11:53;;;;;;;;;;;;;;;5.32;100.00;99351.41;5038545;28;19928;-87
2023/01/12 17:14:22;;;;;;;;;;;;;;;5.27;100.00;99344.50;5056521;28;20291;-86
2023/01/12 17:16:51;;;;;;;;;;;;;;;5.32;100.00;99346.13;5056307;28;20387;-86
2023/01/12 17:19:17;;;;;;;;;;;;;;;5.22;100.00;99341.13;5056449;28;19978;-88
2023/01/12 17:21:42;;;;;;;;;;;;;;;5.23;100.00;99324.50;5037940;28;20368;-87
2023/01/12 17:24:10;;;;;;;;;;;;;;;5.23;100.00;99331.47;5029417;28;19921;-89
2023/01/12 17:26:37;;;;;;;;;;;;;;;5.25;100.00;99322.66;5051126;28;19917;-95
2023/01/12 17:29:02;;;;;;;;;;;;;;;5.20;100.00;99321.94;5030527;28;19928;-88
2023/01/12 17:31:27;;;;;;;;;;;;;;;5.19;100.00;99321.97;5031162;28;20371;-90
2023/01/12 17:33:53;;;;;;;;;;;;;;;5.22;100.00;99319.28;5056926;28;19927;-90
2023/01/12 17:36:18;;;;;;;;;;;;;;;5.20;100.00;99315.81;5038118;28;19916;-89
2023/01/12 17:38:43;;;;;;;;;;;;;;;5.20;100.00;99324.56;5054579;28;19917;-86
2023/01/12 17:43:59;;;;;;;;;;;;;;;5.20;100.00;99314.06;5015812;28;19917;-87
2023/01/12 17:46:24;;;;;;;;;;;;;;;5.19;100.00;99304.44;5036337;28;19937;-86
2023/01/12 17:48:49;;;;;;;;;;;;;;;5.21;100.00;99309.66;5036081;28;19917;-85
2023/01/12 17:51:14;;;;;;;;;;;;;;;5.19;100.00;99308.84;5036748;28;19921;-85
2023/01/12 17:53:40;;;;;;;;;;;;;;;5.21;100.00;99307.03;5016899;28;19964;-85
2023/01/12 17:56:05;;;;;;;;;;;;;;;5.16;100.00;99315.03;5035501;28;19918;-85
2023/01/12 17:58:31;;;;;;;;;;;;;;;5.14;100.00;99311.59;5035577;28;19921;-86
2023/01/12 18:00:56;;;;;;;;;;;;;;;5.14;100.00;99316.84;5036571;28;19984;-88
2023/01/12 18:03:21;;;;;;;;;;;;;;;5.12;100.00;99310.75;5019017;28;19921;-89
2023/01/12 18:05:46;;;;;;;;;;;;;;;5.09;100.00;99310.88;5018125;28;19917;-87
2023/01/12 18:08:12;;;;;;;;;;;;;;;5.12;100.00;99308.13;5034457;28;19917;-88
2023/01/12 18:10:37;;;;;;;;;;;;;;;5.11;100.00;99316.09;5016624;28;19976;-86
2023/01/12 18:13:02;;;;;;;;;;;;;;;5.14;100.00;99306.34;5036161;28;19928;-89
2023/01/12 18:15:28;;;;;;;;;;;;;;;5.15;100.00;99318.56;5017597;28;19967;-90
2023/01/12 18:17:54;;;;;;;;;;;;;;;5.11;100.00;99316.09;5032812;28;20315;-87
2023/01/12 18:20:19;;;;;;;;;;;;;;;5.05;100.00;99310.09;5051989;28;19974;-88
2023/01/12 18:22:44;;;;;;;;;;;;;;;5.11;100.00;99319.56;5054307;28;19975;-87
2023/01/12 18:25:09;;;;;;;;;;;;;;;5.05;100.00;99309.22;5055412;28;19920;-90
2023/01/12 18:27:35;;;;;;;;;;;;;;;5.03;100.00;99314.53;5037187;28;19921;-88
2023/01/12 18:30:03;;;;;;;;;;;;;;;5.05;100.00;99309.22;5055007;28;20295;-89
2023/01/12 18:32:29;;;;;;;;;;;;;;;5.06;100.00;99309.19;5037155;28;20054;-87
2023/01/12 18:34:55;;;;;;;;;;;;;;;5.04;100.00;99310.13;5036329;28;20019;-90
2023/01/12 18:37:21;;;;;;;;;;;;;;;5.12;100.00;99317.78;5053884;28;19916;-89
2023/01/12 18:39:47;;;;;;;;;;;;;;;5.08;100.00;99311.78;5054868;28;19916;-85
2023/01/12 18:45:03;;;;;;;;;;;;;;;5.06;100.00;99316.22;5054698;28;20002;-91
2023/01/12 18:55:40;;;;;;;;;;;;;;;5.04;100.00;99310.13;5055039;28;19953;-86
2023/01/12 18:58:05;;;;;;;;;;;;;;;5.00;100.00;99314.59;5055037;28;20012;-88
2023/01/12 19:00:31;;;;;;;;;;;;;;;5.01;100.00;99297.06;5036647;28;19932;-88
2023/01/12 19:02:57;;;;;;;;;;;;;;;5.01;100.00;99299.69;5054309;28;19917;-87
2023/01/12 19:05:34;;;;;;;;;;;;;;;5.04;100.00;99303.13;5054513;28;19987;-84
2023/01/12 19:10:25;;;;;;;;;;;;;;;5.04;100.00;99302.25;5055028;28;19981;-91
2023/01/12 19:17:25;;;;;;;;;;;;;;;5.04;100.00;99295.25;5055427;28;19921;-89
2023/01/12 19:18:20;;;;;;;;;;;;;;;4.95;100.00;99289.41;5039942;28;20379;-90
2023/01/12 19:20:45;;;;;;;;;;;;;;;5.02;100.00;99283.91;5034274;28;19917;-93
2023/01/12 19:28:43;;;;;;;;;;;;;;;6.07;100.00;99262.38;5034206;28;20394;-86
2023/01/12 19:31:14;;;;;;;;;;;;;;;6.27;100.00;99259.09;5015967;28;19964;-89
2023/01/12 19:33:43;;;;;;;;;;;;;;;6.39;100.00;99262.22;5016784;28;20011;-88
2023/01/12 19:36:09;;;;;;;;;;;;;;;6.49;100.00;99258.34;5015986;28;19928;-86
2023/01/12 19:38:35;;;;;;;;;;;;;;;6.57;100.00;99256.31;5032351;28;19917;-87
2023/01/12 19:41:09;;;;;;;;;;;;;;;6.68;100.00;99254.16;5035105;28;20249;-95
2023/01/12 19:43:43;;;;;;;;;;;;;;;6.72;100.00;99244.41;5036906;28;19917;-91
2023/01/12 19:46:09;;;;;;;;;;;;;;;6.82;100.00;99248.41;5033699;28;19968;-85
2023/01/12 19:48:36;;;;;;;;;;;;;;;6.89;100.00;99251.66;5016039;28;19917;-86
2023/01/12 19:51:05;;;;;;;;;;;;;;;6.96;100.00;99247.06;5016023;28;19927;-88
2023/01/12 19:53:31;;;;;;;;;;;;;;;6.99;100.00;99247.78;5015081;28;19919;-86
2023/01/12 19:55:56;;;;;;;;;;;;;;;7.03;100.00;99243.28;5028884;28;20011;-87
2023/01/12 19:58:22;;;;;;;;;;;;;;;7.04;100.00;99251.13;5038939;28;19920;-87
2023/01/12 20:00:48;;;;;;;;;;;;;;;7.09;100.00;99243.03;5036041;28;20391;-87
2023/01/12 20:03:14;;;;;;;;;;;;;;;7.14;100.00;99250.78;5035683;28;19921;-85
2023/01/12 20:05:40;;;;;;;;;;;;;;;7.23;100.00;99238.13;5036109;28;19917;-86
2023/01/12 20:08:06;;;;;;;;;;;;;;;7.27;100.00;99249.38;5034610;28;19921;-86
2023/01/12 20:10:31;;;;;;;;;;;;;;;7.33;100.00;99248.31;5053644;28;19924;-86
2023/01/12 20:12:56;;;;;;;;;;;;;;;7.36;100.00;99249.03;5035471;28;20280;-85
2023/01/12 20:15:22;;;;;;;;;;;;;;;7.38;100.00;99249.00;5034973;28;19920;-84
2023/01/12 20:17:47;;;;;;;;;;;;;;;7.38;100.00;99234.03;5042835;28;19959;-85
2023/01/12 20:20:12;;;;;;;;;;;;;;;7.39;100.00;99234.91;5015671;28;19921;-86
2023/01/12 20:22:38;;;;;;;;;;;;;;;7.39;100.00;99233.13;5014786;28;19917;-88
2023/01/12 20:25:04;;;;;;;;;;;;;;;7.43;100.00;99231.22;5015739;28;19924;-88
2023/01/12 20:27:31;;;;;;;;;;;;;;;7.43;100.00;99229.44;5017228;28;20372;-86
2023/01/12 20:29:57;;;;;;;;;;;;;;;7.52;100.00;99225.59;5035096;28;19983;-87
2023/01/12 20:32:22;;;;;;;;;;;;;;;7.58;100.00;99224.50;5031485;28;20615;-85
2023/01/12 20:34:47;;;;;;;;;;;;;;;7.55;100.00;99214.94;5017284;28;20012;-85
2023/01/12 20:37:12;;;;;;;;;;;;;;;7.56;100.00;99215.78;5018280;28;19979;-85
2023/01/12 20:39:38;;;;;;;;;;;;;;;7.62;100.00;99219.03;5037255;28;19921;-86
2023/01/12 20:42:03;;;;;;;;;;;;;;;7.65;100.00;99212.78;5019891;28;19917;-87
2023/01/12 20:44:29;;;;;;;;;;;;;;;7.63;100.00;99210.19;5019430;28;19924;-85
2023/01/12 20:46:54;;;;;;;;;;;;;;;7.68;100.00;99212.66;5015618;28;19917;-86
2023/01/12 20:49:19;;;;;;;;;;;;;;;7.69;100.00;99209.09;5021371;28;19917;-94
2023/01/12 20:51:45;;;;;;;;;;;;;;;7.69;100.00;99217.03;5019423;28;19916;-87
2023/01/12 20:54:14;;;;;;;;;;;;;;;7.69;100.00;99224.94;5031037;28;19970;-92
2023/01/12 20:56:39;;;;;;;;;;;;;;;7.70;100.00;99213.44;5041223;28;20288;-89
2023/01/12 20:59:04;;;;;;;;;;;;;;;7.73;100.00;99210.69;5039955;28;19923;-91
2023/01/12 21:01:30;;;;;;;;;;;;;;;7.74;100.00;99215.06;5039982;28;19995;-89
2023/01/12 21:03:55;;;;;;;;;;;;;;;7.74;100.00;99215.06;5039410;28;19956;-88
2023/01/12 21:06:20;;;;;;;;;;;;;;;7.74;100.00;99204.50;5035413;28;19917;-87
2023/01/12 21:08:48;;;;;;;;;;;;;;;7.77;100.00;99208.78;5017462;28;20023;-90
2023/01/12 21:11:15;;;;;;;;;;;;;;;7.79;100.00;99221.00;5019077;28;20018;-91
2023/01/12 21:13:41;;;;;;;;;;;;;;;7.83;100.00;99213.81;5037095;28;19913;-87
2023/01/12 21:16:07;;;;;;;;;;;;;;;7.86;100.00;99207.56;5036302;28;20011;-87
2023/01/12 21:18:32;;;;;;;;;;;;;;;7.86;100.00;99202.28;5018578;28;19924;-87
2023/01/12 21:20:58;;;;;;;;;;;;;;;7.84;100.00;99204.13;5018468;28;20295;-87
2023/01/12 21:23:23;;;;;;;;;;;;;;;7.89;100.00;99203.00;5017840;28;19917;-93
2023/01/12 21:25:49;;;;;;;;;;;;;;;7.90;100.00;99212.66;5019311;28;20296;-91
2023/01/12 21:28:15;;;;;;;;;;;;;;;7.90;100.00;99209.16;5036820;28;19970;-86
2023/01/12 21:30:40;;;;;;;;;;;;;;;7.90;100.00;99211.81;5036198;28;20327;-88
2023/01/12 21:33:06;;;;;;;;;;;;;;;7.93;100.00;99201.09;5036177;28;19924;-88
2023/01/12 21:35:31;;;;;;;;;;;;;;;7.94;100.00;99205.47;5018630;28;20276;-91
2023/01/12 21:37:57;;;;;;;;;;;;;;;7.94;100.00;99203.66;5017225;28;19917;-89
2023/01/12 21:40:22;;;;;;;;;;;;;;;8.04;100.00;99196.25;5040354;28;20406;-87
2023/01/12 21:45:33;;;;;;;;;;;;;;;8.05;100.00;99194.47;5055814;28;19919;-87
2023/01/12 21:48:17;;;;;;;;;;;;;;;8.05;100.00;99202.38;5038414;28;19928;-90
2023/01/12 21:50:42;;;;;;;;;;;;;;;8.03;100.00;99191.03;5056005;28;20055;-85
2023/01/12 21:53:11;;;;;;;;;;;;;;;8.07;100.00;99196.09;5054399;28;20012;-86
2023/01/12 21:55:36;;;;;;;;;;;;;;;8.06;100.00;99194.41;5037590;28;19924;-86
2023/01/12 21:58:01;;;;;;;;;;;;;;;8.08;100.00;99195.19;5028693;28;19917;-90
2023/01/12 22:00:27;;;;;;;;;;;;;;;8.06;100.00;99189.13;5035564;28;20432;-86
2023/01/12 22:02:53;;;;;;;;;;;;;;;8.09;100.00;99193.41;5017858;28;19917;-88
2023/01/12 22:05:20;;;;;;;;;;;;;;;8.09;100.00;99201.31;5035451;28;20011;-86
2023/01/12 22:07:47;;;;;;;;;;;;;;;8.09;100.00;99189.00;5016495;28;19967;-86
2023/01/12 22:10:18;;;;;;;;;;;;;;;8.08;100.00;99182.00;5017406;28;19932;-87
2023/01/12 22:12:44;;;;;;;;;;;;;;;8.13;100.00;99189.72;5017529;28;19918;-87
2023/01/12 22:15:09;;;;;;;;;;;;;;;8.11;100.00;99196.84;5035654;28;19940;-86
2023/01/12 22:17:34;;;;;;;;;;;;;;;8.19;100.00;99187.69;5043726;28;19986;-86
2023/01/12 22:20:00;;;;;;;;;;;;;;;8.17;100.00;99181.63;5037313;28;19952;-87
2023/01/12 22:22:26;;;;;;;;;;;;;;;8.17;100.00;99193.97;5053685;28;20019;-90
2023/01/12 22:24:51;;;;;;;;;;;;;;;8.16;100.00;99195.72;5055174;28;19939;-91
2023/01/12 22:27:16;;;;;;;;;;;;;;;8.17;100.00;99196.59;5054907;28;19917;-88
2023/01/12 22:29:41;;;;;;;;;;;;;;;8.16;100.00;99206.28;5037160;28;20024;-89
2023/01/12 22:32:08;;;;;;;;;;;;;;;8.17;100.00;99199.25;5027043;28;20288;-87
2023/01/12 22:34:33;;;;;;;;;;;;;;;8.19;100.00;99200.03;5034889;28;19925;-88
2023/01/12 22:36:58;;;;;;;;;;;;;;;8.20;100.00;99196.47;5033655;28;20685;-88
2023/01/12 22:39:24;;;;;;;;;;;;;;;8.21;100.00;99194.69;5016967;28;19925;-88
2023/01/12 22:41:49;;;;;;;;;;;;;;;8.23;100.00;99195.47;5017015;28;19923;-87
2023/01/12 22:44:14;;;;;;;;;;;;;;;8.24;100.00;99194.56;5017109;28;19921;-87
2023/01/12 22:46:40;;;;;;;;;;;;;;;8.24;100.00;99191.91;5017095;28;19928;-87
2023/01/12 22:49:06;;;;;;;;;;;;;;;8.25;100.00;99196.25;5043840;28;19956;-89
2023/01/12 22:51:31;;;;;;;;;;;;;;;8.27;100.00;99186.50;5036587;28;19920;-86
2023/01/12 22:53:57;;;;;;;;;;;;;;;8.26;100.00;99184.78;5035466;28;20406;-87
2023/01/12 22:56:22;;;;;;;;;;;;;;;8.26;100.00;99179.50;5054101;28;20283;-87
2023/01/12 22:58:49;;;;;;;;;;;;;;;8.26;100.00;99180.34;5036360;28;19916;-86
2023/01/12 23:01:14;;;;;;;;;;;;;;;8.30;100.00;99175.81;5021245;28;19917;-88
2023/01/12 23:03:40;;;;;;;;;;;;;;;8.31;100.00;99161.66;5016632;28;20028;-86
2023/01/12 23:06:09;;;;;;;;;;;;;;;8.32;100.00;99173.97;5043629;28;19924;-86